34.8°F
Current conditions from King Hill
Updated every 5 minutes
 
  Friday April 18, 2014

Station Historical Data
Daily Summary for June 15, 2012 Units:  English    Metric   Both
« Previous Day
Next Day »
Daily Weekly Monthly Yearly Custom
  High: Low: Average:
Temperature: 77.4 °F 44.9 °F 62.4 °F
Dew Point: 58.7 °F 41.8 °F 50.4 °F
Humidity: 93% 39% 68%
Wind Speed: 7.0mph 0.0mph 2mph
Wind Gust: 12.0mph - -
Wind- - West
Pressure: 30.31 in 30.22 in -
Precipitation: 0.00 in    
Historical Graphs
 
 
Tabular Data for June 15, 2012
Time Temperature Dew Point Pressure Wind Wind Speed Wind Gust Humidity Daily Rainfall
00:04 49.6 °F 44.7 °F 30.27 in Calm     83% 0.00 in
00:09 49.5 °F 44.9 °F 30.27 in Calm     84% 0.00 in
00:14 49.6 °F 45.0 °F 30.27 in Calm     84% 0.00 in
00:19 50.1 °F 45.5 °F 30.27 in Calm     84% 0.00 in
00:24 50.4 °F 45.8 °F 30.27 in Calm     84% 0.00 in
00:29 50.6 °F 45.6 °F 30.27 in Calm     83% 0.00 in
00:34 51.0 °F 46.0 °F 30.27 in Calm     83% 0.00 in
00:39 51.1 °F 45.8 °F 30.27 in Calm     82% 0.00 in
00:44 51.2 °F 45.9 °F 30.27 in Calm     82% 0.00 in
00:49 51.4 °F 45.8 °F 30.27 in Calm     81% 0.00 in
00:54 51.3 °F 45.3 °F 30.27 in Calm     80% 0.00 in
00:59 51.4 °F 45.4 °F 30.27 in Calm     80% 0.00 in
01:04 51.6 °F 45.6 °F 30.27 in Calm     80% 0.00 in
01:09 51.6 °F 45.6 °F 30.26 in Calm     80% 0.00 in
01:14 51.4 °F 45.1 °F 30.26 in Calm     79% 0.00 in
01:19 51.1 °F 45.2 °F 30.26 in Calm     80% 0.00 in
01:24 51.0 °F 45.1 °F 30.26 in Calm     80% 0.00 in
01:29 51.0 °F 45.1 °F 30.26 in Calm     80% 0.00 in
01:34 51.2 °F 45.6 °F 30.26 in Calm     81% 0.00 in
01:39 51.1 °F 45.2 °F 30.26 in Calm     80% 0.00 in
01:44 50.9 °F 45.3 °F 30.26 in Calm     81% 0.00 in
01:49 50.7 °F 45.1 °F 30.26 in Calm   1.0 mph 81% 0.00 in
01:54 50.6 °F 45.0 °F 30.25 in Calm   1.0 mph 81% 0.00 in
01:59 50.3 °F 44.7 °F 30.25 in Calm     81% 0.00 in
02:04 50.0 °F 44.7 °F 30.25 in Calm     82% 0.00 in
02:09 49.7 °F 44.4 °F 30.25 in Calm     82% 0.00 in
02:14 49.6 °F 44.7 °F 30.25 in Calm     83% 0.00 in
02:19 49.5 °F 44.6 °F 30.25 in Calm     83% 0.00 in
02:24 49.5 °F 44.6 °F 30.25 in Calm     83% 0.00 in
02:29 49.3 °F 44.4 °F 30.25 in Calm     83% 0.00 in
02:34 49.2 °F 44.6 °F 30.25 in Calm     84% 0.00 in
02:39 49.2 °F 44.6 °F 30.25 in Calm     84% 0.00 in
02:44 49.1 °F 44.5 °F 30.25 in Calm     84% 0.00 in
02:49 49.0 °F 44.1 °F 30.25 in Calm     83% 0.00 in
02:54 48.8 °F 44.2 °F 30.25 in Calm   1.0 mph 84% 0.00 in
02:59 48.8 °F 44.2 °F 30.25 in Calm   1.0 mph 84% 0.00 in
03:04 48.6 °F 44.0 °F 30.25 in Calm     84% 0.00 in
03:09 48.6 °F 44.3 °F 30.25 in Calm     85% 0.00 in
03:14 48.5 °F 44.2 °F 30.25 in Calm     85% 0.00 in
03:19 48.3 °F 44.0 °F 30.25 in Calm     85% 0.00 in
03:24 48.1 °F 43.8 °F 30.25 in Calm     85% 0.00 in
03:29 48.1 °F 44.1 °F 30.25 in Calm     86% 0.00 in
03:34 48.3 °F 44.3 °F 30.25 in Calm     86% 0.00 in
03:39 48.4 °F 44.4 °F 30.25 in Calm   1.0 mph 86% 0.00 in
03:44 48.6 °F 44.3 °F 30.25 in Calm   1.0 mph 85% 0.00 in
03:49 48.8 °F 44.5 °F 30.25 in Calm     85% 0.00 in
03:54 48.6 °F 44.0 °F 30.25 in Calm     84% 0.00 in
03:59 48.1 °F 43.5 °F 30.25 in Calm     84% 0.00 in
04:04 47.6 °F 43.0 °F 30.25 in Calm     84% 0.00 in
04:09 47.1 °F 42.5 °F 30.25 in Calm     84% 0.00 in
04:14 46.8 °F 42.5 °F 30.25 in Calm     85% 0.00 in
04:19 46.5 °F 42.5 °F 30.25 in Calm     86% 0.00 in
04:24 46.2 °F 42.2 °F 30.25 in Calm     86% 0.00 in
04:29 46.0 °F 42.1 °F 30.25 in Calm     86% 0.00 in
04:34 45.9 °F 42.3 °F 30.25 in Calm     87% 0.00 in
04:39 45.8 °F 42.2 °F 30.25 in Calm     87% 0.00 in
04:44 45.7 °F 42.1 °F 30.25 in Calm     87% 0.00 in
04:49 45.5 °F 42.2 °F 30.26 in Calm     88% 0.00 in
04:54 45.3 °F 42.0 °F 30.26 in Calm     88% 0.00 in
04:59 45.1 °F 41.8 °F 30.26 in Calm     88% 0.00 in
05:04 45.1 °F 41.8 °F 30.26 in Calm     88% 0.00 in
05:09 45.0 °F 42.0 °F 30.26 in Calm     89% 0.00 in
05:14 44.9 °F 41.9 °F 30.26 in Calm     89% 0.00 in
05:19 45.0 °F 42.0 °F 30.26 in Calm     89% 0.00 in
05:24 45.1 °F 42.3 °F 30.26 in Calm     90% 0.00 in
05:29 45.0 °F 42.2 °F 30.26 in Calm     90% 0.00 in
05:34 45.0 °F 42.2 °F 30.26 in Calm     90% 0.00 in
05:39 45.0 °F 42.2 °F 30.26 in Calm     90% 0.00 in
05:44 45.1 °F 42.3 °F 30.27 in Calm     90% 0.00 in
05:49 45.3 °F 42.8 °F 30.27 in Calm     91% 0.00 in
05:54 45.4 °F 42.9 °F 30.27 in Calm     91% 0.00 in
05:59 45.5 °F 43.0 °F 30.27 in Calm     91% 0.00 in
06:04 45.8 °F 43.6 °F 30.27 in Calm     92% 0.00 in
06:09 46.0 °F 43.8 °F 30.27 in Calm     92% 0.00 in
06:14 46.3 °F 44.1 °F 30.28 in Calm     92% 0.00 in
06:19 46.6 °F 44.4 °F 30.28 in Calm     92% 0.00 in
06:24 46.9 °F 45.0 °F 30.28 in Calm     93% 0.00 in
06:29 47.1 °F 44.9 °F 30.29 in Calm     92% 0.00 in
06:34 47.4 °F 45.5 °F 30.29 in Calm     93% 0.00 in
06:39 47.9 °F 46.0 °F 30.29 in Calm     93% 0.00 in
06:44 48.2 °F 46.0 °F 30.29 in Calm     92% 0.00 in
06:49 48.5 °F 46.3 °F 30.29 in Calm     92% 0.00 in
06:54 48.6 °F 46.4 °F 30.29 in Calm     92% 0.00 in
07:04 49.5 °F 47.3 °F 30.29 in Calm     92% 0.00 in
07:09 50.0 °F 47.8 °F 30.29 in Calm     92% 0.00 in
07:14 50.6 °F 48.4 °F 30.29 in Calm     92% 0.00 in
07:19 51.4 °F 49.2 °F 30.30 in Calm     92% 0.00 in
07:24 52.0 °F 49.7 °F 30.29 in Calm     92% 0.00 in
07:29 52.6 °F 50.0 °F 30.30 in Calm     91% 0.00 in
07:34 53.2 °F 50.0 °F 30.29 in Calm     89% 0.00 in
07:39 53.9 °F 50.4 °F 30.30 in Calm     88% 0.00 in
07:44 54.7 °F 51.2 °F 30.30 in Calm     88% 0.00 in
07:49 55.4 °F 51.9 °F 30.30 in Calm     88% 0.00 in
07:54 56.1 °F 52.6 °F 30.30 in Calm     88% 0.00 in
07:59 57.1 °F 53.6 °F 30.30 in Calm     88% 0.00 in
08:04 58.5 °F 54.6 °F 30.31 in Calm     87% 0.00 in
08:09 60.0 °F 54.8 °F 30.31 in Calm     83% 0.00 in
08:14 61.3 °F 53.7 °F 30.31 in Calm   1.0 mph 76% 0.00 in
08:19 62.7 °F 54.3 °F 30.31 in Calm   1.0 mph 74% 0.00 in
08:24 64.0 °F 54.4 °F 30.31 in Calm   1.0 mph 71% 0.00 in
08:29 64.7 °F 51.4 °F 30.31 in Calm   2.0 mph 62% 0.00 in
08:34 65.0 °F 50.3 °F 30.31 in SW 1.0 mph 4.0 mph 59% 0.00 in
08:39 65.4 °F 52.1 °F 30.31 in Calm   4.0 mph 62% 0.00 in
08:44 66.1 °F 51.8 °F 30.31 in Calm   1.0 mph 60% 0.00 in
08:49 66.5 °F 51.7 °F 30.31 in SW 1.0 mph 4.0 mph 59% 0.00 in
08:54 66.3 °F 49.7 °F 30.31 in Calm   5.0 mph 55% 0.00 in
08:59 66.7 °F 52.8 °F 30.31 in Calm   5.0 mph 61% 0.00 in
09:04 67.6 °F 53.2 °F 30.31 in Calm   1.0 mph 60% 0.00 in
09:09 68.1 °F 53.7 °F 30.31 in Calm   1.0 mph 60% 0.00 in
09:14 68.4 °F 51.1 °F 30.31 in SSE 2.0 mph 5.0 mph 54% 0.00 in
09:19 68.5 °F 52.7 °F 30.31 in Calm   5.0 mph 57% 0.00 in
09:24 68.9 °F 53.1 °F 30.31 in Calm   1.0 mph 57% 0.00 in
09:29 69.3 °F 52.5 °F 30.31 in Calm   1.0 mph 55% 0.00 in
09:34 69.4 °F 52.1 °F 30.31 in Calm   1.0 mph 54% 0.00 in
09:39 69.4 °F 52.1 °F 30.31 in SW 1.0 mph 5.0 mph 54% 0.00 in
09:44 69.2 °F 50.8 °F 30.31 in South 2.0 mph 6.0 mph 52% 0.00 in
09:49 69.3 °F 49.9 °F 30.31 in Calm   6.0 mph 50% 0.00 in
09:54 69.7 °F 50.8 °F 30.31 in Calm   4.0 mph 51% 0.00 in
09:59 70.4 °F 52.5 °F 30.31 in Calm   5.0 mph 53% 0.00 in
10:04 70.7 °F 52.2 °F 30.31 in Calm   5.0 mph 52% 0.00 in
10:09 71.2 °F 54.7 °F 30.31 in Calm   1.0 mph 56% 0.00 in
10:14 71.4 °F 51.3 °F 30.31 in Calm   1.0 mph 49% 0.00 in
10:19 71.3 °F 51.7 °F 30.31 in Calm   5.0 mph 50% 0.00 in
10:24 71.0 °F 52.0 °F 30.31 in Calm   6.0 mph 51% 0.00 in
10:29 71.2 °F 52.2 °F 30.31 in NW 2.0 mph 6.0 mph 51% 0.00 in
10:34 71.3 °F 53.3 °F 30.31 in Calm   6.0 mph 53% 0.00 in
10:39 71.3 °F 52.3 °F 30.31 in WNW 4.0 mph 8.0 mph 51% 0.00 in
10:44 71.0 °F 53.0 °F 30.31 in West 1.0 mph 8.0 mph 53% 0.00 in
10:54 70.7 °F 50.1 °F 30.31 in NW 2.0 mph 7.0 mph 48% 0.00 in
10:59 71.0 °F 54.0 °F 30.31 in Calm   5.0 mph 55% 0.00 in
11:04 71.5 °F 51.9 °F 30.30 in Calm   4.0 mph 50% 0.00 in
11:09 72.0 °F 55.5 °F 30.30 in Calm   1.0 mph 56% 0.00 in
11:14 72.5 °F 51.7 °F 30.31 in Calm   1.0 mph 48% 0.00 in
11:19 72.4 °F 53.3 °F 30.30 in East 1.0 mph 5.0 mph 51% 0.00 in
11:24 72.8 °F 54.7 °F 30.30 in Calm   5.0 mph 53% 0.00 in
11:29 73.1 °F 53.4 °F 30.30 in Calm   4.0 mph 50% 0.00 in
11:34 72.9 °F 53.2 °F 30.30 in Calm   5.0 mph 50% 0.00 in
11:39 73.4 °F 52.5 °F 30.30 in Calm   5.0 mph 48% 0.00 in
11:44 73.4 °F 52.5 °F 30.30 in Calm   5.0 mph 48% 0.00 in
11:49 73.3 °F 54.6 °F 30.30 in Calm   5.0 mph 52% 0.00 in
11:54 73.5 °F 54.8 °F 30.30 in Calm   1.0 mph 52% 0.00 in
11:59 73.7 °F 53.9 °F 30.29 in Calm   5.0 mph 50% 0.00 in
12:04 73.9 °F 53.0 °F 30.29 in SSW 1.0 mph 5.0 mph 48% 0.00 in
12:09 74.0 °F 54.2 °F 30.29 in Calm   3.0 mph 50% 0.00 in
12:14 74.1 °F 53.2 °F 30.29 in Calm   1.0 mph 48% 0.00 in
12:19 74.3 °F 52.2 °F 30.29 in Calm   1.0 mph 46% 0.00 in
12:24 74.1 °F 54.3 °F 30.29 in Calm   1.0 mph 50% 0.00 in
12:29 74.2 °F 55.5 °F 30.29 in NW 1.0 mph 7.0 mph 52% 0.00 in
12:34 74.4 °F 55.1 °F 30.29 in WNW 2.0 mph 7.0 mph 51% 0.00 in
12:39 74.3 °F 53.4 °F 30.29 in Calm   5.0 mph 48% 0.00 in
12:44 74.8 °F 54.4 °F 30.28 in Calm   1.0 mph 49% 0.00 in
12:49 75.0 °F 52.8 °F 30.28 in NNE 2.0 mph 5.0 mph 46% 0.00 in
12:54 74.9 °F 52.2 °F 30.28 in Calm   5.0 mph 45% 0.00 in
12:59 74.8 °F 52.7 °F 30.28 in Calm   1.0 mph 46% 0.00 in
13:04 74.9 °F 53.3 °F 30.28 in Calm   1.0 mph 47% 0.00 in
13:09 75.1 °F 48.5 °F 30.28 in Calm   5.0 mph 39% 0.00 in
13:14 74.9 °F 52.2 °F 30.28 in Calm   5.0 mph 45% 0.00 in
13:19 75.3 °F 50.7 °F 30.27 in Calm   5.0 mph 42% 0.00 in
13:24 75.2 °F 53.0 °F 30.27 in Calm   1.0 mph 46% 0.00 in
13:29 75.9 °F 54.8 °F 30.27 in Calm   1.0 mph 48% 0.00 in
13:34 76.2 °F 56.2 °F 30.27 in WNW 1.0 mph 6.0 mph 50% 0.00 in
13:39 75.6 °F 56.8 °F 30.27 in NW 2.0 mph 9.0 mph 52% 0.00 in
13:44 74.6 °F 54.8 °F 30.27 in NW 4.0 mph 11.0 mph 50% 0.00 in
13:49 74.0 °F 53.1 °F 30.27 in NW 4.0 mph 11.0 mph 48% 0.00 in
13:54 73.8 °F 53.5 °F 30.27 in WNW 7.0 mph 10.0 mph 49% 0.00 in
13:59 73.8 °F 55.6 °F 30.26 in Calm   12.0 mph 53% 0.00 in
14:04 74.2 °F 53.8 °F 30.26 in NW 4.0 mph 12.0 mph 49% 0.00 in
14:09 74.7 °F 54.3 °F 30.26 in WNW 1.0 mph 9.0 mph 49% 0.00 in
14:14 75.2 °F 53.0 °F 30.26 in NW 3.0 mph 11.0 mph 46% 0.00 in
14:19 75.2 °F 53.0 °F 30.26 in Calm   11.0 mph 46% 0.00 in
14:24 75.3 °F 54.3 °F 30.26 in Calm   8.0 mph 48% 0.00 in
14:29 75.7 °F 55.2 °F 30.25 in Calm   3.0 mph 49% 0.00 in
14:34 75.8 °F 54.7 °F 30.25 in NW 2.0 mph 8.0 mph 48% 0.00 in
14:39 75.9 °F 56.5 °F 30.25 in Calm   8.0 mph 51% 0.00 in
14:44 76.3 °F 58.5 °F 30.25 in Calm   6.0 mph 54% 0.00 in
14:49 76.4 °F 56.4 °F 30.25 in Calm   6.0 mph 50% 0.00 in
14:54 76.5 °F 56.5 °F 30.25 in Calm   6.0 mph 50% 0.00 in
14:59 76.7 °F 54.4 °F 30.25 in Calm   6.0 mph 46% 0.00 in
15:04 76.5 °F 54.8 °F 30.25 in Calm   6.0 mph 47% 0.00 in
15:09 76.6 °F 57.7 °F 30.25 in WNW 1.0 mph 7.0 mph 52% 0.00 in
15:14 76.9 °F 57.4 °F 30.25 in Calm   7.0 mph 51% 0.00 in
15:19 77.0 °F 53.4 °F 30.25 in Calm   2.0 mph 44% 0.00 in
15:24 77.0 °F 57.5 °F 30.25 in Calm   1.0 mph 51% 0.00 in
15:29 77.1 °F 55.3 °F 30.24 in Calm   5.0 mph 47% 0.00 in
15:34 77.2 °F 56.6 °F 30.24 in NW 1.0 mph 6.0 mph 49% 0.00 in
15:39 77.3 °F 56.1 °F 30.24 in NW 1.0 mph 7.0 mph 48% 0.00 in
15:44 77.4 °F 54.4 °F 30.24 in NNE 1.0 mph 7.0 mph 45% 0.00 in
15:49 77.2 °F 55.4 °F 30.24 in Calm   5.0 mph 47% 0.00 in
15:54 77.0 °F 54.7 °F 30.24 in Calm   4.0 mph 46% 0.00 in
15:59 77.1 °F 58.7 °F 30.24 in Calm   4.0 mph 53% 0.00 in
16:04 77.2 °F 54.8 °F 30.24 in Calm   6.0 mph 46% 0.00 in
16:09 77.3 °F 56.7 °F 30.24 in Calm   6.0 mph 49% 0.00 in
16:14 77.4 °F 54.4 °F 30.23 in WNW 2.0 mph 8.0 mph 45% 0.00 in
16:19 77.3 °F 55.5 °F 30.23 in Calm   8.0 mph 47% 0.00 in
16:24 77.3 °F 53.1 °F 30.23 in Calm   7.0 mph 43% 0.00 in
16:29 77.2 °F 53.6 °F 30.23 in NW 3.0 mph 8.0 mph 44% 0.00 in
16:34 76.7 °F 52.5 °F 30.23 in WNW 2.0 mph 8.0 mph 43% 0.00 in
16:39 76.5 °F 53.6 °F 30.23 in WNW 2.0 mph 7.0 mph 45% 0.00 in
16:44 76.3 °F 55.2 °F 30.23 in Calm   7.0 mph 48% 0.00 in
16:49 76.3 °F 56.9 °F 30.23 in West 1.0 mph 7.0 mph 51% 0.00 in
16:54 76.7 °F 53.8 °F 30.23 in Calm   7.0 mph 45% 0.00 in
16:59 76.8 °F 55.7 °F 30.23 in Calm   5.0 mph 48% 0.00 in
17:04 77.0 °F 54.1 °F 30.23 in Calm   1.0 mph 45% 0.00 in
17:09 76.8 °F 52.6 °F 30.23 in NW 1.0 mph 6.0 mph 43% 0.00 in
17:14 76.4 °F 52.9 °F 30.23 in WNW 3.0 mph 8.0 mph 44% 0.00 in
17:19 76.6 °F 57.7 °F 30.23 in Calm   8.0 mph 52% 0.00 in
17:24 76.9 °F 55.2 °F 30.22 in NW 1.0 mph 6.0 mph 47% 0.00 in
17:29 77.0 °F 55.3 °F 30.22 in Calm   6.0 mph 47% 0.00 in
17:34 76.7 °F 53.2 °F 30.22 in Calm   4.0 mph 44% 0.00 in
17:39 75.9 °F 53.7 °F 30.22 in WNW 2.0 mph 6.0 mph 46% 0.00 in
17:44 75.1 °F 53.5 °F 30.22 in Calm   6.0 mph 47% 0.00 in
17:49 74.6 °F 51.9 °F 30.22 in Calm   6.0 mph 45% 0.00 in
17:54 74.4 °F 55.7 °F 30.23 in Calm   6.0 mph 52% 0.00 in
17:59 74.9 °F 55.0 °F 30.23 in Calm   4.0 mph 50% 0.00 in
18:04 75.5 °F 54.5 °F 30.22 in Calm   4.0 mph 48% 0.00 in
18:09 75.6 °F 55.7 °F 30.22 in Calm   5.0 mph 50% 0.00 in
18:14 75.7 °F 54.1 °F 30.22 in WNW 1.0 mph 5.0 mph 47% 0.00 in
18:19 75.2 °F 52.4 °F 30.22 in Calm   5.0 mph 45% 0.00 in
18:24 75.1 °F 52.3 °F 30.22 in Calm   4.0 mph 45% 0.00 in
18:29 75.4 °F 55.5 °F 30.22 in Calm   4.0 mph 50% 0.00 in
18:34 75.5 °F 55.0 °F 30.22 in Calm   2.0 mph 49% 0.00 in
18:39 75.3 °F 53.7 °F 30.22 in Calm   1.0 mph 47% 0.00 in
18:44 75.5 °F 54.5 °F 30.22 in Calm   1.0 mph 48% 0.00 in
18:49 75.6 °F 56.2 °F 30.22 in Calm     51% 0.00 in
18:54 75.8 °F 54.7 °F 30.22 in Calm     48% 0.00 in
18:59 75.8 °F 56.4 °F 30.23 in Calm   1.0 mph 51% 0.00 in
19:04 75.8 °F 57.5 °F 30.23 in Calm   1.0 mph 53% 0.00 in
19:09 75.5 °F 55.6 °F 30.23 in Calm     50% 0.00 in
19:14 74.9 °F 57.2 °F 30.22 in Calm     54% 0.00 in
19:19 73.8 °F 57.1 °F 30.23 in Calm     56% 0.00 in
19:24 72.5 °F 57.4 °F 30.23 in Calm     59% 0.00 in
19:29 71.1 °F 55.6 °F 30.23 in Calm     58% 0.00 in
19:34 70.1 °F 56.9 °F 30.23 in Calm     63% 0.00 in
19:39 69.2 °F 56.5 °F 30.23 in Calm     64% 0.00 in
19:44 68.2 °F 55.1 °F 30.23 in Calm     63% 0.00 in
19:49 67.2 °F 55.0 °F 30.23 in Calm     65% 0.00 in
19:54 66.2 °F 55.3 °F 30.23 in Calm     68% 0.00 in
19:59 65.0 °F 54.6 °F 30.23 in Calm     69% 0.00 in
20:04 64.1 °F 54.9 °F 30.23 in Calm     72% 0.00 in
20:09 63.4 °F 54.2 °F 30.23 in Calm     72% 0.00 in
20:14 62.7 °F 54.3 °F 30.23 in Calm     74% 0.00 in
20:19 62.1 °F 54.5 °F 30.23 in Calm     76% 0.00 in
20:30 60.9 °F 53.3 °F 30.23 in Calm     76% 0.00 in
20:35 60.4 °F 52.4 °F 30.23 in Calm     75% 0.00 in
20:40 60.0 °F 52.4 °F 30.23 in Calm     76% 0.00 in
20:45 59.5 °F 51.9 °F 30.23 in Calm     76% 0.00 in
20:50 59.4 °F 51.8 °F 30.23 in Calm     76% 0.00 in
20:55 59.1 °F 51.2 °F 30.23 in Calm     75% 0.00 in
21:00 59.0 °F 51.8 °F 30.23 in Calm     77% 0.00 in
21:05 58.5 °F 51.7 °F 30.23 in Calm     78% 0.00 in
21:10 57.9 °F 50.7 °F 30.23 in Calm     77% 0.00 in
21:15 57.4 °F 50.3 °F 30.23 in Calm     77% 0.00 in
21:20 57.1 °F 50.3 °F 30.23 in Calm     78% 0.00 in
21:25 56.9 °F 50.1 °F 30.24 in Calm     78% 0.00 in
21:30 56.8 °F 50.4 °F 30.23 in Calm     79% 0.00 in
21:35 56.8 °F 50.4 °F 30.23 in Calm     79% 0.00 in
21:40 56.8 °F 50.4 °F 30.24 in Calm     79% 0.00 in
21:45 56.9 °F 50.1 °F 30.23 in Calm     78% 0.00 in
21:50 56.8 °F 49.7 °F 30.23 in Calm     77% 0.00 in
21:55 56.7 °F 49.9 °F 30.23 in Calm     78% 0.00 in
22:00 56.9 °F 50.5 °F 30.23 in Calm     79% 0.00 in
22:05 56.7 °F 50.3 °F 30.24 in Calm     79% 0.00 in
22:10 56.5 °F 49.7 °F 30.24 in Calm     78% 0.00 in
22:15 56.2 °F 49.8 °F 30.24 in Calm     79% 0.00 in
22:20 56.0 °F 49.6 °F 30.24 in Calm     79% 0.00 in
22:25 55.7 °F 49.3 °F 30.24 in Calm     79% 0.00 in
22:30 55.4 °F 49.0 °F 30.23 in Calm     79% 0.00 in
22:35 55.2 °F 49.5 °F 30.23 in Calm     81% 0.00 in
22:40 55.0 °F 49.3 °F 30.23 in Calm     81% 0.00 in
22:45 54.8 °F 49.4 °F 30.23 in Calm     82% 0.00 in
22:50 54.6 °F 49.2 °F 30.23 in Calm     82% 0.00 in
22:55 54.5 °F 49.4 °F 30.23 in Calm     83% 0.00 in
23:00 54.4 °F 49.7 °F 30.23 in Calm     84% 0.00 in
23:05 54.3 °F 49.6 °F 30.23 in Calm     84% 0.00 in
23:10 54.2 °F 49.8 °F 30.23 in Calm     85% 0.00 in
23:15 54.1 °F 49.7 °F 30.23 in Calm     85% 0.00 in
23:20 54.0 °F 49.9 °F 30.24 in Calm     86% 0.00 in
23:25 53.7 °F 49.6 °F 30.23 in Calm     86% 0.00 in
23:30 53.4 °F 49.3 °F 30.23 in Calm     86% 0.00 in
23:35 53.1 °F 49.0 °F 30.23 in Calm     86% 0.00 in
23:40 53.1 °F 49.3 °F 30.23 in Calm     87% 0.00 in
23:45 53.0 °F 49.2 °F 30.23 in Calm     87% 0.00 in
23:50 52.8 °F 49.0 °F 30.23 in Calm     87% 0.00 in
23:55 52.6 °F 48.8 °F 30.23 in Calm     87% 0.00 in
Westford Weather
Compliments of Weather Underground

 
 
Current Radar Loop:

Copyright © WestfordWeather.net 2007-2014. All rights reserved.